Aviation Digital Data Service (ADDS)

Output produced by METARs form (0735 UTC 30 October 2020)
found at http://www.aviationweather.gov/metar/data/
 
METAR text: UTDL 300500Z 08009G14MPS 9999 NSC 11/M01 Q1029 R08/CLRD70 NOSIG RMK QFE732/0976
Conditions at: UTDL (KHUDZHAND , TJ) observed 0500 UTC 30 October 2020
Temperature: 11.0°C (52°F)
Dewpoint: -1.0°C (30°F) [RH = 43%]
Pressure (altimeter): 30.38 inches Hg (1029.0 mb)
Winds: from the E (80 degrees) at 20 MPH (17 knots; 8.7 m/s)
gusting to 31 MPH (27 knots; 13.9 m/s)
Visibility: 6 or more miles (10+ km)
Ceiling: at least 12,000 feet AGL
Clouds: sky clear below 12,000 feet AGL
Weather: no significant weather observed at this time

METAR text: UTDL 300430Z 08009MPS 9999 NSC 10/M00 Q1029 R08/CLRD70 NOSIG RMK QFE732/0976
Conditions at: UTDL (KHUDZHAND , TJ) observed 0430 UTC 30 October 2020
Temperature: 10.0°C (50°F)
Dewpoint: 0.0°C (32°F) [RH = 50%]
Pressure (altimeter): 30.38 inches Hg (1029.0 mb)
Winds: from the E (80 degrees) at 20 MPH (17 knots; 8.7 m/s)
Visibility: 6 or more miles (10+ km)
Ceiling: at least 12,000 feet AGL
Clouds: sky clear below 12,000 feet AGL
Weather: no significant weather observed at this time

METAR text: UTDL 300400Z 08009MPS 9999 NSC 09/M00 Q1029 R08/CLRD70 NOSIG RMK QFE732/0976
Conditions at: UTDL (KHUDZHAND , TJ) observed 0400 UTC 30 October 2020
Temperature: 9.0°C (48°F)
Dewpoint: 0.0°C (32°F) [RH = 53%]
Pressure (altimeter): 30.38 inches Hg (1029.0 mb)
Winds: from the E (80 degrees) at 20 MPH (17 knots; 8.7 m/s)
Visibility: 6 or more miles (10+ km)
Ceiling: at least 12,000 feet AGL
Clouds: sky clear below 12,000 feet AGL
Weather: no significant weather observed at this time

METAR text: UTDL 300330Z 09007MPS 9999 NSC 08/M00 Q1029 R08/CLRD70 NOSIG RMK QFE732/0976
Conditions at: UTDL (KHUDZHAND , TJ) observed 0330 UTC 30 October 2020
Temperature: 8.0°C (46°F)
Dewpoint: 0.0°C (32°F) [RH = 57%]
Pressure (altimeter): 30.38 inches Hg (1029.0 mb)
Winds: from the E (90 degrees) at 16 MPH (14 knots; 7.2 m/s)
Visibility: 6 or more miles (10+ km)
Ceiling: at least 12,000 feet AGL
Clouds: sky clear below 12,000 feet AGL
Weather: no significant weather observed at this time

METAR text: UTDL 300300Z 08008MPS 9999 NSC 07/M01 Q1029 R08/CLRD70 NOSIG RMK QFE732/0976
Conditions at: UTDL (KHUDZHAND , TJ) observed 0300 UTC 30 October 2020
Temperature: 7.0°C (45°F)
Dewpoint: -1.0°C (30°F) [RH = 57%]
Pressure (altimeter): 30.38 inches Hg (1029.0 mb)
Winds: from the E (80 degrees) at 18 MPH (16 knots; 8.2 m/s)
Visibility: 6 or more miles (10+ km)
Ceiling: at least 12,000 feet AGL
Clouds: sky clear below 12,000 feet AGL
Weather: no significant weather observed at this time

METAR text: UTDL 300230Z 08008MPS 9999 NSC 07/M01 Q1029 R08/CLRD70 NOSIG RMK QFE732/0976
Conditions at: UTDL (KHUDZHAND , TJ) observed 0230 UTC 30 October 2020
Temperature: 7.0°C (45°F)
Dewpoint: -1.0°C (30°F) [RH = 57%]
Pressure (altimeter): 30.38 inches Hg (1029.0 mb)
Winds: from the E (80 degrees) at 18 MPH (16 knots; 8.2 m/s)
Visibility: 6 or more miles (10+ km)
Ceiling: at least 12,000 feet AGL
Clouds: sky clear below 12,000 feet AGL
Weather: no significant weather observed at this time

METAR text: UTDL 300200Z 09007MPS 9999 NSC 06/M01 Q1029 R08/CLRD70 NOSIG RMK QFE732/0976
Conditions at: UTDL (KHUDZHAND , TJ) observed 0200 UTC 30 October 2020
Temperature: 6.0°C (43°F)
Dewpoint: -1.0°C (30°F) [RH = 61%]
Pressure (altimeter): 30.38 inches Hg (1029.0 mb)
Winds: from the E (90 degrees) at 16 MPH (14 knots; 7.2 m/s)
Visibility: 6 or more miles (10+ km)
Ceiling: at least 12,000 feet AGL
Clouds: sky clear below 12,000 feet AGL
Weather: no significant weather observed at this time

METAR text: UTDL 300130Z 09005MPS 9999 NSC 06/M00 Q1029 R08/CLRD70 NOSIG RMK QFE732/0976
Conditions at: UTDL (KHUDZHAND , TJ) observed 0130 UTC 30 October 2020
Temperature: 6.0°C (43°F)
Dewpoint: 0.0°C (32°F) [RH = 65%]
Pressure (altimeter): 30.38 inches Hg (1029.0 mb)
Winds: from the E (90 degrees) at 12 MPH (10 knots; 5.1 m/s)
Visibility: 6 or more miles (10+ km)
Ceiling: at least 12,000 feet AGL
Clouds: sky clear below 12,000 feet AGL
Weather: no significant weather observed at this time

METAR text: UTDL 300100Z 09006MPS 9999 NSC 06/M01 Q1029 R08/CLRD70 NOSIG RMK QFE732/0976
Conditions at: UTDL (KHUDZHAND , TJ) observed 0100 UTC 30 October 2020
Temperature: 6.0°C (43°F)
Dewpoint: -1.0°C (30°F) [RH = 61%]
Pressure (altimeter): 30.38 inches Hg (1029.0 mb)
Winds: from the E (90 degrees) at 14 MPH (12 knots; 6.2 m/s)
Visibility: 6 or more miles (10+ km)
Ceiling: at least 12,000 feet AGL
Clouds: sky clear below 12,000 feet AGL
Weather: no significant weather observed at this time

METAR text: UTDL 300030Z 08006MPS 9999 NSC 06/M01 Q1029 R08/CLRD70 NOSIG RMK QFE732/0976
Conditions at: UTDL (KHUDZHAND , TJ) observed 0030 UTC 30 October 2020
Temperature: 6.0°C (43°F)
Dewpoint: -1.0°C (30°F) [RH = 61%]
Pressure (altimeter): 30.38 inches Hg (1029.0 mb)
Winds: from the E (80 degrees) at 14 MPH (12 knots; 6.2 m/s)
Visibility: 6 or more miles (10+ km)
Ceiling: at least 12,000 feet AGL
Clouds: sky clear below 12,000 feet AGL
Weather: no significant weather observed at this time

METAR text: UTDL 300000Z 08006MPS 9999 NSC 06/M01 Q1029 R08/CLRD70 NOSIG RMK QFE732/0976
Conditions at: UTDL (KHUDZHAND , TJ) observed 0000 UTC 30 October 2020
Temperature: 6.0°C (43°F)
Dewpoint: -1.0°C (30°F) [RH = 61%]
Pressure (altimeter): 30.38 inches Hg (1029.0 mb)
Winds: from the E (80 degrees) at 14 MPH (12 knots; 6.2 m/s)
Visibility: 6 or more miles (10+ km)
Ceiling: at least 12,000 feet AGL
Clouds: sky clear below 12,000 feet AGL
Weather: no significant weather observed at this time

METAR text: UTDL 292330Z 07005MPS 9999 NSC 06/M01 Q1029 R08/CLRD70 NOSIG RMK QFE732/0976
Conditions at: UTDL (KHUDZHAND , TJ) observed 2330 UTC 29 October 2020
Temperature: 6.0°C (43°F)
Dewpoint: -1.0°C (30°F) [RH = 61%]
Pressure (altimeter): 30.38 inches Hg (1029.0 mb)
Winds: from the ENE (70 degrees) at 12 MPH (10 knots; 5.1 m/s)
Visibility: 6 or more miles (10+ km)
Ceiling: at least 12,000 feet AGL
Clouds: sky clear below 12,000 feet AGL
Weather: no significant weather observed at this time

METAR text: UTDL 292300Z 07005MPS 9999 NSC 06/M01 Q1029 R08/CLRD70 NOSIG RMK QFE732/0977
Conditions at: UTDL (KHUDZHAND , TJ) observed 2300 UTC 29 October 2020
Temperature: 6.0°C (43°F)
Dewpoint: -1.0°C (30°F) [RH = 61%]
Pressure (altimeter): 30.38 inches Hg (1029.0 mb)
Winds: from the ENE (70 degrees) at 12 MPH (10 knots; 5.1 m/s)
Visibility: 6 or more miles (10+ km)
Ceiling: at least 12,000 feet AGL
Clouds: sky clear below 12,000 feet AGL
Weather: no significant weather observed at this time

METAR text: UTDL 292230Z 08004MPS 9999 NSC 06/M01 Q1029 R08/CLRD70 NOSIG RMK QFE732/0977
Conditions at: UTDL (KHUDZHAND , TJ) observed 2230 UTC 29 October 2020
Temperature: 6.0°C (43°F)
Dewpoint: -1.0°C (30°F) [RH = 61%]
Pressure (altimeter): 30.38 inches Hg (1029.0 mb)
Winds: from the E (80 degrees) at 9 MPH (8 knots; 4.1 m/s)
Visibility: 6 or more miles (10+ km)
Ceiling: at least 12,000 feet AGL
Clouds: sky clear below 12,000 feet AGL
Weather: no significant weather observed at this time

METAR text: UTDL 292200Z 09005MPS 9999 NSC 06/M00 Q1030 R08/CLRD70 NOSIG RMK QFE733/0977
Conditions at: UTDL (KHUDZHAND , TJ) observed 2200 UTC 29 October 2020
Temperature: 6.0°C (43°F)
Dewpoint: 0.0°C (32°F) [RH = 65%]
Pressure (altimeter): 30.41 inches Hg (1030.0 mb)
Winds: from the E (90 degrees) at 12 MPH (10 knots; 5.1 m/s)
Visibility: 6 or more miles (10+ km)
Ceiling: at least 12,000 feet AGL
Clouds: sky clear below 12,000 feet AGL
Weather: no significant weather observed at this time

METAR text: UTDL 292130Z 08006MPS 9999 NSC 08/M00 Q1030 R08/CLRD70 NOSIG RMK QFE733/0977
Conditions at: UTDL (KHUDZHAND , TJ) observed 2130 UTC 29 October 2020
Temperature: 8.0°C (46°F)
Dewpoint: 0.0°C (32°F) [RH = 57%]
Pressure (altimeter): 30.41 inches Hg (1030.0 mb)
Winds: from the E (80 degrees) at 14 MPH (12 knots; 6.2 m/s)
Visibility: 6 or more miles (10+ km)
Ceiling: at least 12,000 feet AGL
Clouds: sky clear below 12,000 feet AGL
Weather: no significant weather observed at this time

METAR text: UTDL 292100Z 06008MPS 9999 NSC 10/M02 Q1030 R08/CLRD70 NOSIG RMK QFE733/0977
Conditions at: UTDL (KHUDZHAND , TJ) observed 2100 UTC 29 October 2020
Temperature: 10.0°C (50°F)
Dewpoint: -2.0°C (28°F) [RH = 43%]
Pressure (altimeter): 30.41 inches Hg (1030.0 mb)
Winds: from the ENE (60 degrees) at 18 MPH (16 knots; 8.2 m/s)
Visibility: 6 or more miles (10+ km)
Ceiling: at least 12,000 feet AGL
Clouds: sky clear below 12,000 feet AGL
Weather: no significant weather observed at this time

METAR text: UTDL 292030Z 06008MPS 9999 NSC 09/M02 Q1030 R08/CLRD70 NOSIG RMK QFE733/0978
Conditions at: UTDL (KHUDZHAND , TJ) observed 2030 UTC 29 October 2020
Temperature: 9.0°C (48°F)
Dewpoint: -2.0°C (28°F) [RH = 46%]
Pressure (altimeter): 30.41 inches Hg (1030.0 mb)
Winds: from the ENE (60 degrees) at 18 MPH (16 knots; 8.2 m/s)
Visibility: 6 or more miles (10+ km)
Ceiling: at least 12,000 feet AGL
Clouds: sky clear below 12,000 feet AGL
Weather: no significant weather observed at this time

METAR text: UTDL 292000Z 06007MPS 9999 NSC 09/M02 Q1031 R08/CLRD70 NOSIG RMK QFE733/0978
Conditions at: UTDL (KHUDZHAND , TJ) observed 2000 UTC 29 October 2020
Temperature: 9.0°C (48°F)
Dewpoint: -2.0°C (28°F) [RH = 46%]
Pressure (altimeter): 30.44 inches Hg (1031.0 mb)
Winds: from the ENE (60 degrees) at 16 MPH (14 knots; 7.2 m/s)
Visibility: 6 or more miles (10+ km)
Ceiling: at least 12,000 feet AGL
Clouds: sky clear below 12,000 feet AGL
Weather: no significant weather observed at this time

METAR text: UTDL 291930Z 06006MPS 9999 NSC 09/M01 Q1031 R08/CLRD70 NOSIG RMK QFE734/0978
Conditions at: UTDL (KHUDZHAND , TJ) observed 1930 UTC 29 October 2020
Temperature: 9.0°C (48°F)
Dewpoint: -1.0°C (30°F) [RH = 49%]
Pressure (altimeter): 30.44 inches Hg (1031.0 mb)
Winds: from the ENE (60 degrees) at 14 MPH (12 knots; 6.2 m/s)
Visibility: 6 or more miles (10+ km)
Ceiling: at least 12,000 feet AGL
Clouds: sky clear below 12,000 feet AGL
Weather: no significant weather observed at this time

METAR text: UTDL 291900Z 06007MPS 9999 NSC 09/M01 Q1031 R08/CLRD70 NOSIG RMK QFE734/0978
Conditions at: UTDL (KHUDZHAND , TJ) observed 1900 UTC 29 October 2020
Temperature: 9.0°C (48°F)
Dewpoint: -1.0°C (30°F) [RH = 49%]
Pressure (altimeter): 30.44 inches Hg (1031.0 mb)
Winds: from the ENE (60 degrees) at 16 MPH (14 knots; 7.2 m/s)
Visibility: 6 or more miles (10+ km)
Ceiling: at least 12,000 feet AGL
Clouds: sky clear below 12,000 feet AGL
Weather: no significant weather observed at this time

METAR text: UTDL 291830Z 07007MPS 9999 NSC 09/M01 Q1032 R08/CLRD70 NOSIG RMK QFE734/0979
Conditions at: UTDL (KHUDZHAND , TJ) observed 1830 UTC 29 October 2020
Temperature: 9.0°C (48°F)
Dewpoint: -1.0°C (30°F) [RH = 49%]
Pressure (altimeter): 30.47 inches Hg (1032.0 mb)
Winds: from the ENE (70 degrees) at 16 MPH (14 knots; 7.2 m/s)
Visibility: 6 or more miles (10+ km)
Ceiling: at least 12,000 feet AGL
Clouds: sky clear below 12,000 feet AGL
Weather: no significant weather observed at this time

METAR text: UTDL 291800Z 07007G12MPS 9999 NSC 09/00 Q1032 R08/CLRD70 NOSIG RMK QFE734/0979
Conditions at: UTDL (KHUDZHAND , TJ) observed 1800 UTC 29 October 2020
Temperature: 9.0°C (48°F)
Dewpoint: 0.0°C (32°F) [RH = 53%]
Pressure (altimeter): 30.47 inches Hg (1032.0 mb)
Winds: from the ENE (70 degrees) at 16 MPH (14 knots; 7.2 m/s)
gusting to 26 MPH (23 knots; 11.8 m/s)
Visibility: 6 or more miles (10+ km)
Ceiling: at least 12,000 feet AGL
Clouds: sky clear below 12,000 feet AGL
Weather: no significant weather observed at this time

METAR text: UTDL 291730Z 07007MPS 9999 NSC 09/01 Q1032 R08/CLRD70 NOSIG RMK QFE734/0979
Conditions at: UTDL (KHUDZHAND , TJ) observed 1730 UTC 29 October 2020
Temperature: 9.0°C (48°F)
Dewpoint: 1.0°C (34°F) [RH = 57%]
Pressure (altimeter): 30.47 inches Hg (1032.0 mb)
Winds: from the ENE (70 degrees) at 16 MPH (14 knots; 7.2 m/s)
Visibility: 6 or more miles (10+ km)
Ceiling: at least 12,000 feet AGL
Clouds: sky clear below 12,000 feet AGL
Weather: no significant weather observed at this time

METAR text: UTDL 291700Z 07004MPS 9999 NSC 08/01 Q1032 R08/CLRD70 NOSIG RMK QFE735/0980
Conditions at: UTDL (KHUDZHAND , TJ) observed 1700 UTC 29 October 2020
Temperature: 8.0°C (46°F)
Dewpoint: 1.0°C (34°F) [RH = 61%]
Pressure (altimeter): 30.47 inches Hg (1032.0 mb)
Winds: from the ENE (70 degrees) at 9 MPH (8 knots; 4.1 m/s)
Visibility: 6 or more miles (10+ km)
Ceiling: at least 12,000 feet AGL
Clouds: sky clear below 12,000 feet AGL
Weather: no significant weather observed at this time

METAR text: UTDL 291630Z 07005MPS 9999 NSC 08/M03 Q1033 R08/CLRD70 NOSIG RMK QFE735/0980
Conditions at: UTDL (KHUDZHAND , TJ) observed 1630 UTC 29 October 2020
Temperature: 8.0°C (46°F)
Dewpoint: -3.0°C (27°F) [RH = 46%]
Pressure (altimeter): 30.50 inches Hg (1033.0 mb)
Winds: from the ENE (70 degrees) at 12 MPH (10 knots; 5.1 m/s)
Visibility: 6 or more miles (10+ km)
Ceiling: at least 12,000 feet AGL
Clouds: sky clear below 12,000 feet AGL
Weather: no significant weather observed at this time

METAR text: UTDL 291600Z 08005MPS 9999 NSC 08/M01 Q1033 R08/CLRD70 NOSIG RMK QFE735/0980
Conditions at: UTDL (KHUDZHAND , TJ) observed 1600 UTC 29 October 2020
Temperature: 8.0°C (46°F)
Dewpoint: -1.0°C (30°F) [RH = 53%]
Pressure (altimeter): 30.50 inches Hg (1033.0 mb)
Winds: from the E (80 degrees) at 12 MPH (10 knots; 5.1 m/s)
Visibility: 6 or more miles (10+ km)
Ceiling: at least 12,000 feet AGL
Clouds: sky clear below 12,000 feet AGL
Weather: no significant weather observed at this time

METAR text: UTDL 291530Z 07006MPS 9999 NSC 09/M01 Q1033 R08/CLRD70 NOSIG RMK QFE735/0980
Conditions at: UTDL (KHUDZHAND , TJ) observed 1530 UTC 29 October 2020
Temperature: 9.0°C (48°F)
Dewpoint: -1.0°C (30°F) [RH = 49%]
Pressure (altimeter): 30.50 inches Hg (1033.0 mb)
Winds: from the ENE (70 degrees) at 14 MPH (12 knots; 6.2 m/s)
Visibility: 6 or more miles (10+ km)
Ceiling: at least 12,000 feet AGL
Clouds: sky clear below 12,000 feet AGL
Weather: no significant weather observed at this time

METAR text: UTDL 291500Z 08005MPS 9999 NSC 09/M02 Q1033 R08/CLRD70 NOSIG RMK QFE735/0980
Conditions at: UTDL (KHUDZHAND , TJ) observed 1500 UTC 29 October 2020
Temperature: 9.0°C (48°F)
Dewpoint: -2.0°C (28°F) [RH = 46%]
Pressure (altimeter): 30.50 inches Hg (1033.0 mb)
Winds: from the E (80 degrees) at 12 MPH (10 knots; 5.1 m/s)
Visibility: 6 or more miles (10+ km)
Ceiling: at least 12,000 feet AGL
Clouds: sky clear below 12,000 feet AGL
Weather: no significant weather observed at this time

METAR text: UTDL 291430Z 08006MPS 9999 NSC 09/M02 Q1033 R08/CLRD70 NOSIG RMK QFE735/0980
Conditions at: UTDL (KHUDZHAND , TJ) observed 1430 UTC 29 October 2020
Temperature: 9.0°C (48°F)
Dewpoint: -2.0°C (28°F) [RH = 46%]
Pressure (altimeter): 30.50 inches Hg (1033.0 mb)
Winds: from the E (80 degrees) at 14 MPH (12 knots; 6.2 m/s)
Visibility: 6 or more miles (10+ km)
Ceiling: at least 12,000 feet AGL
Clouds: sky clear below 12,000 feet AGL
Weather: no significant weather observed at this time

METAR text: UTDL 291400Z 08006MPS 9999 NSC 09/M02 Q1033 R08/CLRD70 NOSIG RMK QFE735/0981
Conditions at: UTDL (KHUDZHAND , TJ) observed 1400 UTC 29 October 2020
Temperature: 9.0°C (48°F)
Dewpoint: -2.0°C (28°F) [RH = 46%]
Pressure (altimeter): 30.50 inches Hg (1033.0 mb)
Winds: from the E (80 degrees) at 14 MPH (12 knots; 6.2 m/s)
Visibility: 6 or more miles (10+ km)
Ceiling: at least 12,000 feet AGL
Clouds: sky clear below 12,000 feet AGL
Weather: no significant weather observed at this time

METAR text: UTDL 291330Z 08007MPS 9999 NSC 10/M01 Q1033 R08/CLRD70 NOSIG RMK QFE735/0981
Conditions at: UTDL (KHUDZHAND , TJ) observed 1330 UTC 29 October 2020
Temperature: 10.0°C (50°F)
Dewpoint: -1.0°C (30°F) [RH = 46%]
Pressure (altimeter): 30.50 inches Hg (1033.0 mb)
Winds: from the E (80 degrees) at 16 MPH (14 knots; 7.2 m/s)
Visibility: 6 or more miles (10+ km)
Ceiling: at least 12,000 feet AGL
Clouds: sky clear below 12,000 feet AGL
Weather: no significant weather observed at this time

METAR text: UTDL 291300Z 08007MPS 9999 NSC 10/M01 Q1033 R08/CLRD70 NOSIG RMK QFE735/0981
Conditions at: UTDL (KHUDZHAND , TJ) observed 1300 UTC 29 October 2020
Temperature: 10.0°C (50°F)
Dewpoint: -1.0°C (30°F) [RH = 46%]
Pressure (altimeter): 30.50 inches Hg (1033.0 mb)
Winds: from the E (80 degrees) at 16 MPH (14 knots; 7.2 m/s)
Visibility: 6 or more miles (10+ km)
Ceiling: at least 12,000 feet AGL
Clouds: sky clear below 12,000 feet AGL
Weather: no significant weather observed at this time

METAR text: UTDL 291230Z 08006MPS 9999 NSC 11/M02 Q1033 R08/CLRD70 NOSIG RMK QFE735/0981
Conditions at: UTDL (KHUDZHAND , TJ) observed 1230 UTC 29 October 2020
Temperature: 11.0°C (52°F)
Dewpoint: -2.0°C (28°F) [RH = 40%]
Pressure (altimeter): 30.50 inches Hg (1033.0 mb)
Winds: from the E (80 degrees) at 14 MPH (12 knots; 6.2 m/s)
Visibility: 6 or more miles (10+ km)
Ceiling: at least 12,000 feet AGL
Clouds: sky clear below 12,000 feet AGL
Weather: no significant weather observed at this time

METAR text: UTDL 291200Z 07007MPS 9999 NSC 11/M03 Q1033 R08/CLRD70 NOSIG RMK QFE735/0981
Conditions at: UTDL (KHUDZHAND , TJ) observed 1200 UTC 29 October 2020
Temperature: 11.0°C (52°F)
Dewpoint: -3.0°C (27°F) [RH = 37%]
Pressure (altimeter): 30.50 inches Hg (1033.0 mb)
Winds: from the ENE (70 degrees) at 16 MPH (14 knots; 7.2 m/s)
Visibility: 6 or more miles (10+ km)
Ceiling: at least 12,000 feet AGL
Clouds: sky clear below 12,000 feet AGL
Weather: no significant weather observed at this time

METAR text: UTDL 291130Z 08009MPS 9999 NSC 12/M04 Q1033 R08/CLRD70 NOSIG RMK QFE735/0981
Conditions at: UTDL (KHUDZHAND , TJ) observed 1130 UTC 29 October 2020
Temperature: 12.0°C (54°F)
Dewpoint: -4.0°C (25°F) [RH = 32%]
Pressure (altimeter): 30.50 inches Hg (1033.0 mb)
Winds: from the E (80 degrees) at 20 MPH (17 knots; 8.7 m/s)
Visibility: 6 or more miles (10+ km)
Ceiling: at least 12,000 feet AGL
Clouds: sky clear below 12,000 feet AGL
Weather: no significant weather observed at this time

METAR text: UTDL 291100Z 07008MPS 9999 NSC 12/M04 Q1033 R08/CLRD70 NOSIG RMK QFE735/0980
Conditions at: UTDL (KHUDZHAND , TJ) observed 1100 UTC 29 October 2020
Temperature: 12.0°C (54°F)
Dewpoint: -4.0°C (25°F) [RH = 32%]
Pressure (altimeter): 30.50 inches Hg (1033.0 mb)
Winds: from the ENE (70 degrees) at 18 MPH (16 knots; 8.2 m/s)
Visibility: 6 or more miles (10+ km)
Ceiling: at least 12,000 feet AGL
Clouds: sky clear below 12,000 feet AGL
Weather: no significant weather observed at this time

METAR text: UTDL 291030Z 08009G14MPS 9999 NSC 12/M04 Q1033 R08/CLRD70 NOSIG RMK QFE735/0981
Conditions at: UTDL (KHUDZHAND , TJ) observed 1030 UTC 29 October 2020
Temperature: 12.0°C (54°F)
Dewpoint: -4.0°C (25°F) [RH = 32%]
Pressure (altimeter): 30.50 inches Hg (1033.0 mb)
Winds: from the E (80 degrees) at 20 MPH (17 knots; 8.7 m/s)
gusting to 31 MPH (27 knots; 13.9 m/s)
Visibility: 6 or more miles (10+ km)
Ceiling: at least 12,000 feet AGL
Clouds: sky clear below 12,000 feet AGL
Weather: no significant weather observed at this time

METAR text: UTDL 291000Z 07009G14MPS 9999 NSC 12/M04 Q1033 R08/CLRD70 NOSIG RMK QFE735/0981
Conditions at: UTDL (KHUDZHAND , TJ) observed 1000 UTC 29 October 2020
Temperature: 12.0°C (54°F)
Dewpoint: -4.0°C (25°F) [RH = 32%]
Pressure (altimeter): 30.50 inches Hg (1033.0 mb)
Winds: from the ENE (70 degrees) at 20 MPH (17 knots; 8.7 m/s)
gusting to 31 MPH (27 knots; 13.9 m/s)
Visibility: 6 or more miles (10+ km)
Ceiling: at least 12,000 feet AGL
Clouds: sky clear below 12,000 feet AGL
Weather: no significant weather observed at this time

METAR text: UTDL 290930Z 08010MPS 9999 NSC 12/M04 Q1033 R08/CLRD70 NOSIG RMK QFE735/0981
Conditions at: UTDL (KHUDZHAND , TJ) observed 0930 UTC 29 October 2020
Temperature: 12.0°C (54°F)
Dewpoint: -4.0°C (25°F) [RH = 32%]
Pressure (altimeter): 30.50 inches Hg (1033.0 mb)
Winds: from the E (80 degrees) at 22 MPH (19 knots; 9.8 m/s)
Visibility: 6 or more miles (10+ km)
Ceiling: at least 12,000 feet AGL
Clouds: sky clear below 12,000 feet AGL
Weather: no significant weather observed at this time

METAR text: UTDL 290900Z 08010MPS 9999 NSC 12/M05 Q1033 R08/CLRD70 NOSIG RMK QFE735/0981
Conditions at: UTDL (KHUDZHAND , TJ) observed 0900 UTC 29 October 2020
Temperature: 12.0°C (54°F)
Dewpoint: -5.0°C (23°F) [RH = 30%]
Pressure (altimeter): 30.50 inches Hg (1033.0 mb)
Winds: from the E (80 degrees) at 22 MPH (19 knots; 9.8 m/s)
Visibility: 6 or more miles (10+ km)
Ceiling: at least 12,000 feet AGL
Clouds: sky clear below 12,000 feet AGL
Weather: no significant weather observed at this time

METAR text: UTDL 290830Z 07010MPS 9999 NSC 11/M05 Q1034 R08/CLRD70 NOSIG RMK QFE735/0981
Conditions at: UTDL (KHUDZHAND , TJ) observed 0830 UTC 29 October 2020
Temperature: 11.0°C (52°F)
Dewpoint: -5.0°C (23°F) [RH = 32%]
Pressure (altimeter): 30.53 inches Hg (1034.0 mb)
Winds: from the ENE (70 degrees) at 22 MPH (19 knots; 9.8 m/s)
Visibility: 6 or more miles (10+ km)
Ceiling: at least 12,000 feet AGL
Clouds: sky clear below 12,000 feet AGL
Weather: no significant weather observed at this time

METAR text: UTDL 290800Z 08009MPS 9999 NSC 11/M05 Q1034 R08/CLRD70 NOSIG RMK QFE736/0981
Conditions at: UTDL (KHUDZHAND , TJ) observed 0800 UTC 29 October 2020
Temperature: 11.0°C (52°F)
Dewpoint: -5.0°C (23°F) [RH = 32%]
Pressure (altimeter): 30.53 inches Hg (1034.0 mb)
Winds: from the E (80 degrees) at 20 MPH (17 knots; 8.7 m/s)
Visibility: 6 or more miles (10+ km)
Ceiling: at least 12,000 feet AGL
Clouds: sky clear below 12,000 feet AGL
Weather: no significant weather observed at this time

METAR text: UTDL 290730Z 08010G15MPS 9999 NSC 10/M05 Q1034 R08/CLRD70 NOSIG RMK QFE736/0981
Conditions at: UTDL (KHUDZHAND , TJ) observed 0730 UTC 29 October 2020
Temperature: 10.0°C (50°F)
Dewpoint: -5.0°C (23°F) [RH = 34%]
Pressure (altimeter): 30.53 inches Hg (1034.0 mb)
Winds: from the E (80 degrees) at 22 MPH (19 knots; 9.8 m/s)
gusting to 33 MPH (29 knots; 14.9 m/s)
Visibility: 6 or more miles (10+ km)
Ceiling: at least 12,000 feet AGL
Clouds: sky clear below 12,000 feet AGL
Weather: no significant weather observed at this time

METAR text: UTDL 290700Z 08010MPS 9999 NSC 11/M05 Q1035 R08/CLRD70 NOSIG RMK QFE736/0982
Conditions at: UTDL (KHUDZHAND , TJ) observed 0700 UTC 29 October 2020
Temperature: 11.0°C (52°F)
Dewpoint: -5.0°C (23°F) [RH = 32%]
Pressure (altimeter): 30.56 inches Hg (1035.0 mb)
Winds: from the E (80 degrees) at 22 MPH (19 knots; 9.8 m/s)
Visibility: 6 or more miles (10+ km)
Ceiling: at least 12,000 feet AGL
Clouds: sky clear below 12,000 feet AGL
Weather: no significant weather observed at this time

METAR text: UTDL 290630Z 07009MPS 9999 NSC 10/M04 Q1035 R08/CLRD70 NOSIG RMK QFE736/0982
Conditions at: UTDL (KHUDZHAND , TJ) observed 0630 UTC 29 October 2020
Temperature: 10.0°C (50°F)
Dewpoint: -4.0°C (25°F) [RH = 37%]
Pressure (altimeter): 30.56 inches Hg (1035.0 mb)
Winds: from the ENE (70 degrees) at 20 MPH (17 knots; 8.7 m/s)
Visibility: 6 or more miles (10+ km)
Ceiling: at least 12,000 feet AGL
Clouds: sky clear below 12,000 feet AGL
Weather: no significant weather observed at this time

METAR text: UTDL 290600Z 07009MPS 9999 NSC 09/M03 Q1035 R08/CLRD70 NOSIG RMK QFE736/0982
Conditions at: UTDL (KHUDZHAND , TJ) observed 0600 UTC 29 October 2020
Temperature: 9.0°C (48°F)
Dewpoint: -3.0°C (27°F) [RH = 43%]
Pressure (altimeter): 30.56 inches Hg (1035.0 mb)
Winds: from the ENE (70 degrees) at 20 MPH (17 knots; 8.7 m/s)
Visibility: 6 or more miles (10+ km)
Ceiling: at least 12,000 feet AGL
Clouds: sky clear below 12,000 feet AGL
Weather: no significant weather observed at this time

METAR text: UTDL 290530Z 07008MPS 9999 NSC 09/M03 Q1035 R08/CLRD70 NOSIG RMK QFE737/0982
Conditions at: UTDL (KHUDZHAND , TJ) observed 0530 UTC 29 October 2020
Temperature: 9.0°C (48°F)
Dewpoint: -3.0°C (27°F) [RH = 43%]
Pressure (altimeter): 30.56 inches Hg (1035.0 mb)
Winds: from the ENE (70 degrees) at 18 MPH (16 knots; 8.2 m/s)
Visibility: 6 or more miles (10+ km)
Ceiling: at least 12,000 feet AGL
Clouds: sky clear below 12,000 feet AGL
Weather: no significant weather observed at this time

METAR text: UTDL 290500Z 07006MPS 9999 NSC 08/M03 Q1035 R08/CLRD70 NOSIG RMK QFE737/0982
Conditions at: UTDL (KHUDZHAND , TJ) observed 0500 UTC 29 October 2020
Temperature: 8.0°C (46°F)
Dewpoint: -3.0°C (27°F) [RH = 46%]
Pressure (altimeter): 30.56 inches Hg (1035.0 mb)
Winds: from the ENE (70 degrees) at 14 MPH (12 knots; 6.2 m/s)
Visibility: 6 or more miles (10+ km)
Ceiling: at least 12,000 feet AGL
Clouds: sky clear below 12,000 feet AGL
Weather: no significant weather observed at this time

METAR text: UTDL 290430Z 07004MPS 9999 NSC 07/M06 Q1035 R08/CLRD70 NOSIG RMK QFE737/0982
Conditions at: UTDL (KHUDZHAND , TJ) observed 0430 UTC 29 October 2020
Temperature: 7.0°C (45°F)
Dewpoint: -6.0°C (21°F) [RH = 39%]
Pressure (altimeter): 30.56 inches Hg (1035.0 mb)
Winds: from the ENE (70 degrees) at 9 MPH (8 knots; 4.1 m/s)
Visibility: 6 or more miles (10+ km)
Ceiling: at least 12,000 feet AGL
Clouds: sky clear below 12,000 feet AGL
Weather: no significant weather observed at this time

METAR text: UTDL 290400Z 07002MPS 9999 NSC 06/M08 Q1035 R26/CLRD70 NOSIG RMK QFE738/0984
Conditions at: UTDL (KHUDZHAND , TJ) observed 0400 UTC 29 October 2020
Temperature: 6.0°C (43°F)
Dewpoint: -8.0°C (18°F) [RH = 36%]
Pressure (altimeter): 30.56 inches Hg (1035.0 mb)
Winds: from the ENE (70 degrees) at 5 MPH (4 knots; 2.1 m/s)
Visibility: 6 or more miles (10+ km)
Ceiling: at least 12,000 feet AGL
Clouds: sky clear below 12,000 feet AGL
Weather: no significant weather observed at this time

METAR text: UTDL 290330Z 11001MPS 9999 NSC 05/M07 Q1035 R26/CLRD70 NOSIG RMK QFE738/0984
Conditions at: UTDL (KHUDZHAND , TJ) observed 0330 UTC 29 October 2020
Temperature: 5.0°C (41°F)
Dewpoint: -7.0°C (19°F) [RH = 41%]
Pressure (altimeter): 30.56 inches Hg (1035.0 mb)
Winds: from the ESE (110 degrees) at 2 MPH (2 knots; 1.0 m/s)
Visibility: 6 or more miles (10+ km)
Ceiling: at least 12,000 feet AGL
Clouds: sky clear below 12,000 feet AGL
Weather: no significant weather observed at this time

METAR text: UTDL 290300Z 00000MPS 9999 NSC 03/M05 Q1035 R26/CLRD70 NOSIG RMK QFE738/0984
Conditions at: UTDL (KHUDZHAND , TJ) observed 0300 UTC 29 October 2020
Temperature: 3.0°C (37°F)
Dewpoint: -5.0°C (23°F) [RH = 56%]
Pressure (altimeter): 30.56 inches Hg (1035.0 mb)
Winds: calm
Visibility: 6 or more miles (10+ km)
Ceiling: at least 12,000 feet AGL
Clouds: sky clear below 12,000 feet AGL
Weather: no significant weather observed at this time

METAR text: UTDL 290230Z 00000MPS 9999 NSC 00/M05 Q1035 R26/CLRD70 NOSIG RMK QFE738/0984
Conditions at: UTDL (KHUDZHAND , TJ) observed 0230 UTC 29 October 2020
Temperature: 0.0°C (32°F)
Dewpoint: -5.0°C (23°F) [RH = 69%]
Pressure (altimeter): 30.56 inches Hg (1035.0 mb)
Winds: calm
Visibility: 6 or more miles (10+ km)
Ceiling: at least 12,000 feet AGL
Clouds: sky clear below 12,000 feet AGL
Weather: no significant weather observed at this time

METAR text: UTDL 290200Z 18001MPS 9999 NSC M01/M06 Q1035 R26/CLRD70 NOSIG RMK QFE738/0984
Conditions at: UTDL (KHUDZHAND , TJ) observed 0200 UTC 29 October 2020
Temperature: -1.0°C (30°F)
Dewpoint: -6.0°C (21°F) [RH = 69%]
Pressure (altimeter): 30.56 inches Hg (1035.0 mb)
Winds: from the S (180 degrees) at 2 MPH (2 knots; 1.0 m/s)
Visibility: 6 or more miles (10+ km)
Ceiling: at least 12,000 feet AGL
Clouds: sky clear below 12,000 feet AGL
Weather: no significant weather observed at this time

METAR text: UTDL 290130Z 23001MPS 9999 NSC M01/M06 Q1034 R26/CLRD70 NOSIG RMK QFE737/0983
Conditions at: UTDL (KHUDZHAND , TJ) observed 0130 UTC 29 October 2020
Temperature: -1.0°C (30°F)
Dewpoint: -6.0°C (21°F) [RH = 69%]
Pressure (altimeter): 30.53 inches Hg (1034.0 mb)
Winds: from the SW (230 degrees) at 2 MPH (2 knots; 1.0 m/s)
Visibility: 6 or more miles (10+ km)
Ceiling: at least 12,000 feet AGL
Clouds: sky clear below 12,000 feet AGL
Weather: no significant weather observed at this time

METAR text: UTDL 290100Z 00000MPS 9999 NSC 00/M06 Q1034 R26/CLRD70 NOSIG RMK QFE737/0983
Conditions at: UTDL (KHUDZHAND , TJ) observed 0100 UTC 29 October 2020
Temperature: 0.0°C (32°F)
Dewpoint: -6.0°C (21°F) [RH = 64%]
Pressure (altimeter): 30.53 inches Hg (1034.0 mb)
Winds: calm
Visibility: 6 or more miles (10+ km)
Ceiling: at least 12,000 feet AGL
Clouds: sky clear below 12,000 feet AGL
Weather: no significant weather observed at this time

METAR text: UTDL 290030Z 01001MPS 9999 NSC 02/M07 Q1034 R26/CLRD70 NOSIG RMK QFE737/0983
Conditions at: UTDL (KHUDZHAND , TJ) observed 0030 UTC 29 October 2020
Temperature: 2.0°C (36°F)
Dewpoint: -7.0°C (19°F) [RH = 51%]
Pressure (altimeter): 30.53 inches Hg (1034.0 mb)
Winds: from the N (10 degrees) at 2 MPH (2 knots; 1.0 m/s)
Visibility: 6 or more miles (10+ km)
Ceiling: at least 12,000 feet AGL
Clouds: sky clear below 12,000 feet AGL
Weather: no significant weather observed at this time

METAR text: UTDL 290000Z 34002MPS 9999 NSC 03/M07 Q1034 R26/CLRD70 NOSIG RMK QFE737/0983
Conditions at: UTDL (KHUDZHAND , TJ) observed 0000 UTC 29 October 2020
Temperature: 3.0°C (37°F)
Dewpoint: -7.0°C (19°F) [RH = 48%]
Pressure (altimeter): 30.53 inches Hg (1034.0 mb)
Winds: from the NNW (340 degrees) at 5 MPH (4 knots; 2.1 m/s)
Visibility: 6 or more miles (10+ km)
Ceiling: at least 12,000 feet AGL
Clouds: sky clear below 12,000 feet AGL
Weather: no significant weather observed at this time

METAR text: UTDL 282330Z 23003MPS 9999 NSC 03/M07 Q1033 R26/CLRD70 NOSIG RMK QFE737/0982
Conditions at: UTDL (KHUDZHAND , TJ) observed 2330 UTC 28 October 2020
Temperature: 3.0°C (37°F)
Dewpoint: -7.0°C (19°F) [RH = 48%]
Pressure (altimeter): 30.50 inches Hg (1033.0 mb)
Winds: from the SW (230 degrees) at 7 MPH (6 knots; 3.1 m/s)
Visibility: 6 or more miles (10+ km)
Ceiling: at least 12,000 feet AGL
Clouds: sky clear below 12,000 feet AGL
Weather: no significant weather observed at this time

METAR text: UTDL 282300Z 24005MPS 9999 NSC 02/M07 Q1033 R26/CLRD70 NOSIG RMK QFE736/0982
Conditions at: UTDL (KHUDZHAND , TJ) observed 2300 UTC 28 October 2020
Temperature: 2.0°C (36°F)
Dewpoint: -7.0°C (19°F) [RH = 51%]
Pressure (altimeter): 30.50 inches Hg (1033.0 mb)
Winds: from the WSW (240 degrees) at 12 MPH (10 knots; 5.1 m/s)
Visibility: 6 or more miles (10+ km)
Ceiling: at least 12,000 feet AGL
Clouds: sky clear below 12,000 feet AGL
Weather: no significant weather observed at this time

METAR text: UTDL 282230Z 26005MPS 9999 NSC 02/M07 Q1033 R26/CLRD70 NOSIG RMK QFE736/0982
Conditions at: UTDL (KHUDZHAND , TJ) observed 2230 UTC 28 October 2020
Temperature: 2.0°C (36°F)
Dewpoint: -7.0°C (19°F) [RH = 51%]
Pressure (altimeter): 30.50 inches Hg (1033.0 mb)
Winds: from the W (260 degrees) at 12 MPH (10 knots; 5.1 m/s)
Visibility: 6 or more miles (10+ km)
Ceiling: at least 12,000 feet AGL
Clouds: sky clear below 12,000 feet AGL
Weather: no significant weather observed at this time

METAR text: UTDL 282200Z 25004MPS 9999 NSC 03/M08 Q1033 R26/CLRD70 NOSIG RMK QFE736/0982
Conditions at: UTDL (KHUDZHAND , TJ) observed 2200 UTC 28 October 2020
Temperature: 3.0°C (37°F)
Dewpoint: -8.0°C (18°F) [RH = 44%]
Pressure (altimeter): 30.50 inches Hg (1033.0 mb)
Winds: from the WSW (250 degrees) at 9 MPH (8 knots; 4.1 m/s)
Visibility: 6 or more miles (10+ km)
Ceiling: at least 12,000 feet AGL
Clouds: sky clear below 12,000 feet AGL
Weather: no significant weather observed at this time

METAR text: UTDL 282130Z 24004MPS 9999 NSC 03/M08 Q1033 R26/CLRD70 NOSIG RMK QFE736/0982
Conditions at: UTDL (KHUDZHAND , TJ) observed 2130 UTC 28 October 2020
Temperature: 3.0°C (37°F)
Dewpoint: -8.0°C (18°F) [RH = 44%]
Pressure (altimeter): 30.50 inches Hg (1033.0 mb)
Winds: from the WSW (240 degrees) at 9 MPH (8 knots; 4.1 m/s)
Visibility: 6 or more miles (10+ km)
Ceiling: at least 12,000 feet AGL
Clouds: sky clear below 12,000 feet AGL
Weather: no significant weather observed at this time

METAR text: UTDL 282100Z 25005MPS 9999 NSC 03/M08 Q1033 R26/CLRD70 NOSIG RMK QFE736/0982
Conditions at: UTDL (KHUDZHAND , TJ) observed 2100 UTC 28 October 2020
Temperature: 3.0°C (37°F)
Dewpoint: -8.0°C (18°F) [RH = 44%]
Pressure (altimeter): 30.50 inches Hg (1033.0 mb)
Winds: from the WSW (250 degrees) at 12 MPH (10 knots; 5.1 m/s)
Visibility: 6 or more miles (10+ km)
Ceiling: at least 12,000 feet AGL
Clouds: sky clear below 12,000 feet AGL
Weather: no significant weather observed at this time

METAR text: UTDL 282030Z 23005MPS 9999 NSC 04/M08 Q1032 R26/CLRD70 NOSIG RMK QFE736/0981
Conditions at: UTDL (KHUDZHAND , TJ) observed 2030 UTC 28 October 2020
Temperature: 4.0°C (39°F)
Dewpoint: -8.0°C (18°F) [RH = 41%]
Pressure (altimeter): 30.47 inches Hg (1032.0 mb)
Winds: from the SW (230 degrees) at 12 MPH (10 knots; 5.1 m/s)
Visibility: 6 or more miles (10+ km)
Ceiling: at least 12,000 feet AGL
Clouds: sky clear below 12,000 feet AGL
Weather: no significant weather observed at this time

METAR text: UTDL 282000Z 23005MPS 9999 NSC 03/M08 Q1033 R26/CLRD70 NOSIG RMK QFE736/0982
Conditions at: UTDL (KHUDZHAND , TJ) observed 2000 UTC 28 October 2020
Temperature: 3.0°C (37°F)
Dewpoint: -8.0°C (18°F) [RH = 44%]
Pressure (altimeter): 30.50 inches Hg (1033.0 mb)
Winds: from the SW (230 degrees) at 12 MPH (10 knots; 5.1 m/s)
Visibility: 6 or more miles (10+ km)
Ceiling: at least 12,000 feet AGL
Clouds: sky clear below 12,000 feet AGL
Weather: no significant weather observed at this time

Forecast for: UTDL (KHUDZHAND , TJ)
Text: TAF UTDL 300300Z 3004/3016 08008MPS 9999 NSC
Forecast period: 0400 to 1600 UTC 30 October 2020
Forecast type: FROM: standard forecast or significant change
Winds: from the E (80 degrees) at 18 MPH (16 knots; 8.2 m/s)
Visibility: 6 or more miles (10+ km)
Ceiling: unknown
Clouds: missing
Weather: no significant weather forecast for this period
Text: TEMPO 3004/3010 07013MPS
Forecast period: 0400 to 1000 UTC 30 October 2020
Forecast type: TEMPORARY: The following changes expected for less than half the time period
Winds: from the ENE (70 degrees) at 29 MPH (25 knots; 12.9 m/s)
Visibility: missing
Ceiling: unknown
Clouds: missing
Weather: no significant weather forecast for this period